Time,TemperatureF,DewpointF,PressureIn,WindDirection,WindDirectionDegrees,WindSpeedMPH,WindSpeedGustMPH,Humidity,HourlyPrecipIn,Conditions,Clouds,dailyrainin,SoftwareType,DateUTC
2012-04-13 00:05:00,37.0,36.0,30.07,North,349,2.0,5.0,96,0.00,,,0.00,weatherlink.com 1.10,2012-04-13 07:05:00,
2012-04-13 00:20:00,36.8,36.0,30.07,WNW,302,2.0,4.0,96,0.00,,,0.00,weatherlink.com 1.10,2012-04-13 07:20:00,
2012-04-13 00:50:00,36.6,36.0,30.06,WNW,293,0.0,6.0,96,0.00,,,0.00,weatherlink.com 1.10,2012-04-13 07:50:00,
2012-04-13 01:05:00,36.5,36.0,30.05,NNW,348,0.0,6.0,96,0.00,,,0.00,weatherlink.com 1.10,2012-04-13 08:05:00,
2012-04-13 01:20:00,36.6,36.0,30.05,WSW,243,0.0,4.0,96,0.00,,,0.00,weatherlink.com 1.10,2012-04-13 08:20:00,
2012-04-13 01:35:00,36.6,36.0,30.05,NE,52,3.0,4.0,96,0.00,,,0.00,weatherlink.com 1.10,2012-04-13 08:35:00,
2012-04-13 01:50:00,36.3,35.0,30.05,WSW,253,2.0,5.0,96,0.00,,,0.00,weatherlink.com 1.10,2012-04-13 08:50:00,
2012-04-13 02:05:00,35.9,35.0,30.03,West,263,0.0,3.0,96,0.00,,,0.00,weatherlink.com 1.10,2012-04-13 09:05:00,
2012-04-13 02:20:00,36.1,35.0,30.04,SSE,149,0.0,7.0,97,0.00,,,0.00,weatherlink.com 1.10,2012-04-13 09:20:00,
2012-04-13 02:35:00,35.7,35.0,30.02,WNW,302,1.0,4.0,96,0.00,,,0.00,weatherlink.com 1.10,2012-04-13 09:35:00,
2012-04-13 02:50:00,34.9,34.0,30.01,WSW,245,1.0,2.0,96,0.00,,,0.00,weatherlink.com 1.10,2012-04-13 09:50:00,
2012-04-13 03:05:00,34.6,34.0,30.00,North,352,1.0,3.0,96,0.00,,,0.00,weatherlink.com 1.10,2012-04-13 10:05:00,
2012-04-13 03:20:00,35.2,35.0,30.01,NNE,23,2.0,3.0,97,0.00,,,0.00,weatherlink.com 1.10,2012-04-13 10:20:00,
2012-04-13 03:35:00,35.2,35.0,30.00,NNE,22,3.0,5.0,97,0.00,,,0.00,weatherlink.com 1.10,2012-04-13 10:35:00,
2012-04-13 03:50:00,35.0,34.0,30.00,North,9,3.0,4.0,97,0.00,,,0.00,weatherlink.com 1.10,2012-04-13 10:50:00,
2012-04-13 04:05:00,35.0,34.0,29.99,NE,39,0.0,4.0,97,0.00,,,0.00,weatherlink.com 1.10,2012-04-13 11:05:00,
2012-04-13 04:21:00,35.4,34.0,29.99,North,352,1.0,4.0,95,0.00,,,0.00,weatherlink.com 1.10,2012-04-13 11:21:00,
2012-04-13 04:51:00,35.5,35.0,29.98,North,352,0.0,2.0,96,0.00,,,0.00,weatherlink.com 1.10,2012-04-13 11:51:00,
2012-04-13 05:06:00,35.6,35.0,29.98,WNW,288,2.0,2.0,96,0.00,,,0.00,weatherlink.com 1.10,2012-04-13 12:06:00,
2012-04-13 05:21:00,35.7,35.0,29.97,SW,231,0.0,3.0,96,0.00,,,0.00,weatherlink.com 1.10,2012-04-13 12:21:00,
2012-04-13 05:36:00,35.9,35.0,29.97,NNW,341,0.0,3.0,96,0.00,,,0.00,weatherlink.com 1.10,2012-04-13 12:36:00,
2012-04-13 05:51:00,35.7,35.0,29.96,NNE,15,2.0,5.0,96,0.00,,,0.00,weatherlink.com 1.10,2012-04-13 12:51:00,
2012-04-13 06:06:00,35.4,34.0,29.96,North,5,0.0,2.0,96,0.00,,,0.00,weatherlink.com 1.10,2012-04-13 13:06:00,
2012-04-13 06:21:00,35.4,35.0,29.97,NW,319,0.0,3.0,97,0.00,,,0.00,weatherlink.com 1.10,2012-04-13 13:21:00,
2012-04-13 06:36:00,35.5,35.0,29.97,North,5,0.0,2.0,97,0.00,,,0.00,weatherlink.com 1.10,2012-04-13 13:36:00,
2012-04-13 06:51:00,35.3,35.0,29.96,North,5,0.0,2.0,97,0.00,,,0.00,weatherlink.com 1.10,2012-04-13 13:51:00,
2012-04-13 07:06:00,34.9,34.0,29.97,WSW,246,0.0,3.0,96,0.00,,,0.00,weatherlink.com 1.10,2012-04-13 14:06:00,
2012-04-13 07:21:00,34.9,34.0,29.97,WNW,297,0.0,1.0,97,0.00,,,0.00,weatherlink.com 1.10,2012-04-13 14:21:00,
2012-04-13 07:36:00,35.5,35.0,29.97,West,266,0.0,2.0,97,0.00,,,0.00,weatherlink.com 1.10,2012-04-13 14:36:00,
2012-04-13 07:51:00,36.0,35.0,29.96,WSW,249,0.0,2.0,97,0.00,,,0.00,weatherlink.com 1.10,2012-04-13 14:51:00,
2012-04-13 08:21:00,36.8,36.0,29.96,SSW,208,2.0,2.0,97,0.00,,,0.00,weatherlink.com 1.10,2012-04-13 15:21:00,
2012-04-13 08:36:00,37.6,37.0,29.96,East,91,0.0,5.0,96,0.00,,,0.00,weatherlink.com 1.10,2012-04-13 15:36:00,
2012-04-13 08:51:00,38.4,37.0,29.95,SSW,204,3.0,3.0,93,0.00,,,0.00,weatherlink.com 1.10,2012-04-13 15:51:00,
2012-04-13 09:06:00,38.8,36.0,29.95,SSW,209,3.0,3.0,90,0.00,,,0.00,weatherlink.com 1.10,2012-04-13 16:06:00,
2012-04-13 09:21:00,38.3,36.0,29.96,SSE,156,0.0,1.0,91,0.00,,,0.00,weatherlink.com 1.10,2012-04-13 16:21:00,
2012-04-13 09:36:00,38.5,35.0,29.97,South,190,2.0,7.0,87,0.00,,,0.00,weatherlink.com 1.10,2012-04-13 16:36:00,
2012-04-13 09:51:00,38.8,33.0,29.95,North,4,6.0,6.0,80,0.00,,,0.00,weatherlink.com 1.10,2012-04-13 16:51:00,
2012-04-13 10:07:00,39.7,31.0,29.95,North,352,2.0,5.0,72,0.00,,,0.00,weatherlink.com 1.10,2012-04-13 17:07:00,
2012-04-13 10:21:00,39.4,33.0,29.95,North,10,1.0,3.0,78,0.00,,,0.00,weatherlink.com 1.10,2012-04-13 17:21:00,
2012-04-13 10:36:00,38.5,34.0,29.95,North,6,0.0,3.0,85,0.01,,,0.01,weatherlink.com 1.10,2012-04-13 17:36:00,
2012-04-13 10:51:00,37.9,36.0,29.94,WSW,238,0.0,3.0,91,0.02,,,0.02,weatherlink.com 1.10,2012-04-13 17:51:00,
2012-04-13 11:06:00,38.7,35.0,29.93,SSW,207,0.0,3.0,87,0.03,,,0.03,weatherlink.com 1.10,2012-04-13 18:06:00,
2012-04-13 11:21:00,39.4,36.0,29.92,SSW,210,0.0,6.0,86,0.03,,,0.03,weatherlink.com 1.10,2012-04-13 18:21:00,
2012-04-13 11:37:00,39.8,36.0,29.91,SE,129,0.0,1.0,85,0.02,,,0.03,weatherlink.com 1.10,2012-04-13 18:37:00,
2012-04-13 11:52:00,40.0,36.0,29.91,NE,45,2.0,3.0,85,0.01,,,0.03,weatherlink.com 1.10,2012-04-13 18:52:00,
2012-04-13 12:07:00,40.0,36.0,29.90,NNE,22,4.0,5.0,86,0.00,,,0.03,weatherlink.com 1.10,2012-04-13 19:07:00,
2012-04-13 12:22:00,40.2,35.0,29.88,East,99,1.0,5.0,83,0.00,,,0.03,weatherlink.com 1.10,2012-04-13 19:22:00,
2012-04-13 12:36:00,39.6,37.0,29.89,South,184,0.0,4.0,89,0.01,,,0.04,weatherlink.com 1.10,2012-04-13 19:36:00,
2012-04-13 12:51:00,39.0,36.0,29.88,NE,56,0.0,1.0,90,0.01,,,0.04,weatherlink.com 1.10,2012-04-13 19:51:00,
2012-04-13 13:07:00,38.9,36.0,29.86,SW,218,0.0,7.0,90,0.02,,,0.05,weatherlink.com 1.10,2012-04-13 20:07:00,
2012-04-13 13:22:00,38.7,37.0,29.86,ESE,120,0.0,2.0,92,0.03,,,0.06,weatherlink.com 1.10,2012-04-13 20:22:00,
2012-04-13 13:37:00,38.3,37.0,29.84,ESE,106,0.0,2.0,93,0.03,,,0.07,weatherlink.com 1.10,2012-04-13 20:37:00,
2012-04-13 14:07:00,38.4,37.0,29.84,SSW,207,0.0,3.0,95,0.03,,,0.08,weatherlink.com 1.10,2012-04-13 21:07:00,
2012-04-13 14:22:00,38.2,37.0,29.84,West,273,0.0,8.0,95,0.02,,,0.08,weatherlink.com 1.10,2012-04-13 21:22:00,
2012-04-13 14:37:00,38.5,37.0,29.83,SW,217,2.0,3.0,95,0.01,,,0.08,weatherlink.com 1.10,2012-04-13 21:37:00,
2012-04-13 14:52:00,38.3,37.0,29.82,East,89,0.0,6.0,94,0.00,,,0.08,weatherlink.com 1.10,2012-04-13 21:52:00,
2012-04-13 15:07:00,37.6,36.0,29.82,SE,138,0.0,5.0,94,0.00,,,0.08,weatherlink.com 1.10,2012-04-13 22:07:00,
2012-04-13 15:22:00,37.2,36.0,29.80,SE,127,4.0,4.0,94,0.00,,,0.08,weatherlink.com 1.10,2012-04-13 22:22:00,
2012-04-13 15:37:00,36.3,35.0,29.79,SSW,203,3.0,13.0,94,0.05,,,0.13,weatherlink.com 1.10,2012-04-13 22:37:00,
2012-04-13 15:52:00,34.9,34.0,29.78,WSW,243,3.0,8.0,95,0.11,,,0.19,weatherlink.com 1.10,2012-04-13 22:52:00,
2012-04-13 16:07:00,33.0,32.0,29.79,North,11,3.0,3.0,94,0.11,,,0.19,weatherlink.com 1.10,2012-04-13 23:07:00,
2012-04-13 16:22:00,32.4,31.0,29.79,NNW,348,1.0,2.0,95,0.11,,,0.19,weatherlink.com 1.10,2012-04-13 23:22:00,
2012-04-13 16:37:00,32.5,31.0,29.78,SE,145,0.0,1.0,95,0.05,,,0.19,weatherlink.com 1.10,2012-04-13 23:37:00,
2012-04-13 16:52:00,32.6,31.0,29.78,SW,229,0.0,1.0,95,0.00,,,0.19,weatherlink.com 1.10,2012-04-13 23:52:00,
2012-04-13 17:07:00,32.5,31.0,29.79,NW,314,0.0,1.0,95,0.00,,,0.19,weatherlink.com 1.10,2012-04-14 00:07:00,
2012-04-13 17:22:00,32.3,31.0,29.78,NNW,339,0.0,1.0,95,0.00,,,0.19,weatherlink.com 1.10,2012-04-14 00:22:00,
2012-04-13 17:37:00,32.4,31.0,29.77,NW,304,0.0,2.0,96,0.00,,,0.19,weatherlink.com 1.10,2012-04-14 00:37:00,
2012-04-13 17:52:00,32.6,32.0,29.78,NW,307,0.0,4.0,96,0.00,,,0.19,weatherlink.com 1.10,2012-04-14 00:52:00,
2012-04-13 18:07:00,32.7,32.0,29.78,NNW,331,0.0,1.0,96,0.00,,,0.19,weatherlink.com 1.10,2012-04-14 01:07:00,
2012-04-13 18:22:00,32.6,32.0,29.77,West,262,0.0,3.0,96,0.00,,,0.19,weatherlink.com 1.10,2012-04-14 01:22:00,
2012-04-13 18:37:00,32.3,31.0,29.77,NNW,344,0.0,3.0,96,0.00,,,0.19,weatherlink.com 1.10,2012-04-14 01:37:00,
2012-04-13 18:52:00,32.1,31.0,29.76,SSW,208,0.0,1.0,96,0.00,,,0.19,weatherlink.com 1.10,2012-04-14 01:52:00,
2012-04-13 19:07:00,32.2,31.0,29.77,SW,217,1.0,1.0,96,0.00,,,0.19,weatherlink.com 1.10,2012-04-14 02:07:00,
2012-04-13 19:22:00,32.2,31.0,29.77,SW,235,0.0,2.0,96,0.00,,,0.19,weatherlink.com 1.10,2012-04-14 02:22:00,
2012-04-13 19:37:00,32.1,31.0,29.76,SSW,212,0.0,1.0,96,0.00,,,0.19,weatherlink.com 1.10,2012-04-14 02:37:00,
2012-04-13 19:52:00,31.8,31.0,29.78,SSW,194,2.0,7.0,96,0.00,,,0.19,weatherlink.com 1.10,2012-04-14 02:52:00,
2012-04-13 20:07:00,30.8,30.0,29.79,NNW,339,0.0,2.0,96,0.00,,,0.19,weatherlink.com 1.10,2012-04-14 03:07:00,
2012-04-13 20:22:00,30.9,30.0,29.77,NNW,337,0.0,3.0,96,0.00,,,0.19,weatherlink.com 1.10,2012-04-14 03:22:00,
2012-04-13 20:37:00,31.0,30.0,29.77,South,181,0.0,1.0,96,0.00,,,0.19,weatherlink.com 1.10,2012-04-14 03:37:00,
2012-04-13 20:52:00,30.9,30.0,29.78,WSW,256,0.0,1.0,96,0.00,,,0.19,weatherlink.com 1.10,2012-04-14 03:52:00,
2012-04-13 21:07:00,31.1,30.0,29.78,SW,235,0.0,1.0,96,0.00,,,0.19,weatherlink.com 1.10,2012-04-14 04:07:00,
2012-04-13 21:22:00,31.4,31.0,29.77,SSW,210,1.0,1.0,97,0.00,,,0.19,weatherlink.com 1.10,2012-04-14 04:22:00,
2012-04-13 21:37:00,31.6,31.0,29.78,SW,219,0.0,4.0,97,0.00,,,0.19,weatherlink.com 1.10,2012-04-14 04:37:00,
2012-04-13 21:52:00,31.3,30.0,29.79,SSW,210,0.0,3.0,96,0.00,,,0.19,weatherlink.com 1.10,2012-04-14 04:52:00,
2012-04-13 22:07:00,31.0,30.0,29.79,SW,229,0.0,3.0,96,0.00,,,0.19,weatherlink.com 1.10,2012-04-14 05:07:00,
2012-04-13 22:22:00,31.2,31.0,29.78,SW,221,0.0,2.0,97,0.00,,,0.19,weatherlink.com 1.10,2012-04-14 05:22:00,
2012-04-13 22:37:00,31.4,31.0,29.77,SSW,208,0.0,3.0,97,0.00,,,0.19,weatherlink.com 1.10,2012-04-14 05:37:00,
2012-04-13 22:52:00,31.6,31.0,29.77,SSW,205,1.0,3.0,97,0.00,,,0.19,weatherlink.com 1.10,2012-04-14 05:52:00,
2012-04-13 23:07:00,31.3,31.0,29.78,WSW,239,0.0,2.0,97,0.00,,,0.19,weatherlink.com 1.10,2012-04-14 06:07:00,
2012-04-13 23:22:00,30.7,30.0,29.78,SW,225,0.0,2.0,96,0.00,,,0.19,weatherlink.com 1.10,2012-04-14 06:22:00,
2012-04-13 23:37:00,31.3,31.0,29.77,SE,135,0.0,2.0,97,0.00,,,0.19,weatherlink.com 1.10,2012-04-14 06:37:00,
2012-04-13 23:52:00,31.2,31.0,29.78,SW,219,3.0,3.0,97,0.00,,,0.19,weatherlink.com 1.10,2012-04-14 06:52:00,